sensor_id;sensor_type;location;lat;lon;timestamp;temperature;humidity
43561;DHT22;32305;46.410;17.394;2023-07-22T00:01:17;26.40;57.10
43561;DHT22;32305;46.410;17.394;2023-07-22T00:03:44;26.40;57.10
43561;DHT22;32305;46.410;17.394;2023-07-22T00:06:11;26.40;57.10
43561;DHT22;32305;46.410;17.394;2023-07-22T00:08:38;26.40;57.10
43561;DHT22;32305;46.410;17.394;2023-07-22T00:11:05;26.30;57.10
43561;DHT22;32305;46.410;17.394;2023-07-22T00:13:32;26.30;57.10
43561;DHT22;32305;46.410;17.394;2023-07-22T00:16:00;26.30;57.10
43561;DHT22;32305;46.410;17.394;2023-07-22T00:18:27;26.30;57.10
43561;DHT22;32305;46.410;17.394;2023-07-22T00:20:54;26.30;57.10
43561;DHT22;32305;46.410;17.394;2023-07-22T00:23:21;26.30;57.10
43561;DHT22;32305;46.410;17.394;2023-07-22T00:25:48;26.30;57.10
43561;DHT22;32305;46.410;17.394;2023-07-22T00:28:15;26.30;57.20
43561;DHT22;32305;46.410;17.394;2023-07-22T00:30:42;26.30;57.20
43561;DHT22;32305;46.410;17.394;2023-07-22T00:33:09;26.30;57.20
43561;DHT22;32305;46.410;17.394;2023-07-22T00:35:36;26.30;57.20
43561;DHT22;32305;46.410;17.394;2023-07-22T00:38:03;26.30;57.30
43561;DHT22;32305;46.410;17.394;2023-07-22T00:40:30;26.30;57.30
43561;DHT22;32305;46.410;17.394;2023-07-22T00:42:58;26.30;57.30
43561;DHT22;32305;46.410;17.394;2023-07-22T00:45:28;26.20;57.20
43561;DHT22;32305;46.410;17.394;2023-07-22T00:47:55;26.30;57.30
43561;DHT22;32305;46.410;17.394;2023-07-22T00:50:22;26.20;57.30
43561;DHT22;32305;46.410;17.394;2023-07-22T00:52:50;26.30;57.40
43561;DHT22;32305;46.410;17.394;2023-07-22T00:55:17;26.20;57.30
43561;DHT22;32305;46.410;17.394;2023-07-22T00:57:44;26.20;57.50
43561;DHT22;32305;46.410;17.394;2023-07-22T01:00:11;26.20;57.30
43561;DHT22;32305;46.410;17.394;2023-07-22T01:02:39;26.20;57.30
43561;DHT22;32305;46.410;17.394;2023-07-22T01:05:07;26.20;57.30
43561;DHT22;32305;46.410;17.394;2023-07-22T01:07:37;26.20;57.40
43561;DHT22;32305;46.410;17.394;2023-07-22T01:10:05;26.20;57.40
43561;DHT22;32305;46.410;17.394;2023-07-22T01:12:32;26.30;57.40
43561;DHT22;32305;46.410;17.394;2023-07-22T01:14:59;26.20;57.40
43561;DHT22;32305;46.410;17.394;2023-07-22T01:17:27;26.20;57.40
43561;DHT22;32305;46.410;17.394;2023-07-22T01:19:55;26.20;57.40
43561;DHT22;32305;46.410;17.394;2023-07-22T01:22:23;26.20;57.40
43561;DHT22;32305;46.410;17.394;2023-07-22T01:24:50;26.30;58.00
43561;DHT22;32305;46.410;17.394;2023-07-22T01:27:17;26.30;57.40
43561;DHT22;32305;46.410;17.394;2023-07-22T01:29:44;26.30;57.50
43561;DHT22;32305;46.410;17.394;2023-07-22T01:32:11;26.20;57.40
43561;DHT22;32305;46.410;17.394;2023-07-22T01:34:38;26.30;57.50
43561;DHT22;32305;46.410;17.394;2023-07-22T01:37:06;26.30;57.40
43561;DHT22;32305;46.410;17.394;2023-07-22T01:39:33;26.30;57.50
43561;DHT22;32305;46.410;17.394;2023-07-22T01:42:00;26.30;57.40
43561;DHT22;32305;46.410;17.394;2023-07-22T01:44:27;26.30;57.40
43561;DHT22;32305;46.410;17.394;2023-07-22T01:46:55;26.30;57.40
43561;DHT22;32305;46.410;17.394;2023-07-22T01:49:22;26.30;57.40
43561;DHT22;32305;46.410;17.394;2023-07-22T01:51:51;26.30;57.40
43561;DHT22;32305;46.410;17.394;2023-07-22T01:54:19;26.30;57.40
43561;DHT22;32305;46.410;17.394;2023-07-22T01:56:46;26.30;57.40
43561;DHT22;32305;46.410;17.394;2023-07-22T01:59:13;26.30;57.40
43561;DHT22;32305;46.410;17.394;2023-07-22T02:01:40;26.30;57.40
43561;DHT22;32305;46.410;17.394;2023-07-22T02:04:07;26.30;57.40
43561;DHT22;32305;46.410;17.394;2023-07-22T02:06:34;26.30;57.40
43561;DHT22;32305;46.410;17.394;2023-07-22T02:09:01;26.30;57.40
43561;DHT22;32305;46.410;17.394;2023-07-22T02:11:35;26.30;57.40
43561;DHT22;32305;46.410;17.394;2023-07-22T02:14:02;26.20;57.90
43561;DHT22;32305;46.410;17.394;2023-07-22T02:16:37;26.20;57.30
43561;DHT22;32305;46.410;17.394;2023-07-22T02:19:04;26.20;57.30
43561;DHT22;32305;46.410;17.394;2023-07-22T02:21:31;26.20;57.30
43561;DHT22;32305;46.410;17.394;2023-07-22T02:23:58;26.20;57.40
43561;DHT22;32305;46.410;17.394;2023-07-22T02:26:25;26.20;57.40
43561;DHT22;32305;46.410;17.394;2023-07-22T02:28:52;26.20;57.40
43561;DHT22;32305;46.410;17.394;2023-07-22T02:31:19;26.20;57.40
43561;DHT22;32305;46.410;17.394;2023-07-22T02:33:48;26.20;57.40
43561;DHT22;32305;46.410;17.394;2023-07-22T02:36:15;26.20;57.50
43561;DHT22;32305;46.410;17.394;2023-07-22T02:38:42;26.20;57.50
43561;DHT22;32305;46.410;17.394;2023-07-22T02:41:09;26.20;57.50
43561;DHT22;32305;46.410;17.394;2023-07-22T02:43:36;26.20;57.50
43561;DHT22;32305;46.410;17.394;2023-07-22T02:46:04;26.20;57.50
43561;DHT22;32305;46.410;17.394;2023-07-22T02:48:32;26.10;57.50
43561;DHT22;32305;46.410;17.394;2023-07-22T02:51:03;26.10;57.50
43561;DHT22;32305;46.410;17.394;2023-07-22T02:53:32;26.10;57.50
43561;DHT22;32305;46.410;17.394;2023-07-22T02:55:59;26.10;57.50
43561;DHT22;32305;46.410;17.394;2023-07-22T02:58:26;26.10;57.50
43561;DHT22;32305;46.410;17.394;2023-07-22T03:00:53;26.10;57.50
43561;DHT22;32305;46.410;17.394;2023-07-22T03:03:20;26.10;57.60
43561;DHT22;32305;46.410;17.394;2023-07-22T03:05:47;26.10;57.60
43561;DHT22;32305;46.410;17.394;2023-07-22T03:08:14;26.10;57.60
43561;DHT22;32305;46.410;17.394;2023-07-22T03:10:41;26.10;57.60
43561;DHT22;32305;46.410;17.394;2023-07-22T03:13:10;26.10;57.60
43561;DHT22;32305;46.410;17.394;2023-07-22T03:15:37;26.10;57.60
43561;DHT22;32305;46.410;17.394;2023-07-22T03:18:06;26.10;57.60
43561;DHT22;32305;46.410;17.394;2023-07-22T03:20:33;26.10;57.60
43561;DHT22;32305;46.410;17.394;2023-07-22T03:23:00;26.10;57.60
43561;DHT22;32305;46.410;17.394;2023-07-22T03:25:27;26.10;57.60
43561;DHT22;32305;46.410;17.394;2023-07-22T03:27:54;26.10;57.60
43561;DHT22;32305;46.410;17.394;2023-07-22T03:30:21;26.10;57.60
43561;DHT22;32305;46.410;17.394;2023-07-22T03:32:49;26.10;58.20
43561;DHT22;32305;46.410;17.394;2023-07-22T03:35:17;26.10;57.60
43561;DHT22;32305;46.410;17.394;2023-07-22T03:37:45;26.10;57.70
43561;DHT22;32305;46.410;17.394;2023-07-22T03:40:12;26.10;57.60
43561;DHT22;32305;46.410;17.394;2023-07-22T03:42:50;26.10;57.70
43561;DHT22;32305;46.410;17.394;2023-07-22T03:45:17;26.10;57.70
43561;DHT22;32305;46.410;17.394;2023-07-22T03:47:45;26.10;57.60
43561;DHT22;32305;46.410;17.394;2023-07-22T03:50:13;26.10;57.60
43561;DHT22;32305;46.410;17.394;2023-07-22T03:52:40;26.20;57.70
43561;DHT22;32305;46.410;17.394;2023-07-22T03:55:07;26.20;57.60
43561;DHT22;32305;46.410;17.394;2023-07-22T03:57:34;26.20;57.60
43561;DHT22;32305;46.410;17.394;2023-07-22T04:00:02;26.20;57.60
43561;DHT22;32305;46.410;17.394;2023-07-22T04:02:30;26.20;57.50
43561;DHT22;32305;46.410;17.394;2023-07-22T04:04:57;26.20;57.50
43561;DHT22;32305;46.410;17.394;2023-07-22T04:07:27;26.30;57.50
43561;DHT22;32305;46.410;17.394;2023-07-22T04:09:54;26.30;57.50
43561;DHT22;32305;46.410;17.394;2023-07-22T04:12:21;26.30;57.40
43561;DHT22;32305;46.410;17.394;2023-07-22T04:14:48;26.30;57.40
43561;DHT22;32305;46.410;17.394;2023-07-22T04:17:15;26.30;57.30
43561;DHT22;32305;46.410;17.394;2023-07-22T04:19:42;26.30;57.30
43561;DHT22;32305;46.410;17.394;2023-07-22T04:22:12;26.40;57.30
43561;DHT22;32305;46.410;17.394;2023-07-22T04:24:39;26.40;57.20
43561;DHT22;32305;46.410;17.394;2023-07-22T04:27:07;26.40;57.10
43561;DHT22;32305;46.410;17.394;2023-07-22T04:29:34;26.40;57.10
43561;DHT22;32305;46.410;17.394;2023-07-22T04:32:01;26.40;57.10
43561;DHT22;32305;46.410;17.394;2023-07-22T04:34:30;26.40;57.10
43561;DHT22;32305;46.410;17.394;2023-07-22T04:36:57;26.40;57.10
43561;DHT22;32305;46.410;17.394;2023-07-22T04:39:24;26.40;57.10
43561;DHT22;32305;46.410;17.394;2023-07-22T04:41:51;26.40;57.00
43561;DHT22;32305;46.410;17.394;2023-07-22T04:44:18;26.40;56.90
43561;DHT22;32305;46.410;17.394;2023-07-22T04:46:45;26.40;56.90
43561;DHT22;32305;46.410;17.394;2023-07-22T04:49:12;26.40;56.90
43561;DHT22;32305;46.410;17.394;2023-07-22T04:51:40;26.50;56.90
43561;DHT22;32305;46.410;17.394;2023-07-22T04:54:07;26.50;56.80
43561;DHT22;32305;46.410;17.394;2023-07-22T04:56:34;26.50;56.80
43561;DHT22;32305;46.410;17.394;2023-07-22T04:59:01;26.50;56.70
43561;DHT22;32305;46.410;17.394;2023-07-22T05:01:29;26.50;56.70
43561;DHT22;32305;46.410;17.394;2023-07-22T05:03:56;26.50;56.60
43561;DHT22;32305;46.410;17.394;2023-07-22T05:06:24;26.50;56.30
43561;DHT22;32305;46.410;17.394;2023-07-22T05:08:52;26.60;56.10
43561;DHT22;32305;46.410;17.394;2023-07-22T05:11:19;26.60;55.80
43561;DHT22;32305;46.410;17.394;2023-07-22T05:13:46;26.70;55.60
43561;DHT22;32305;46.410;17.394;2023-07-22T05:16:16;26.70;55.30
43561;DHT22;32305;46.410;17.394;2023-07-22T05:18:43;26.70;55.00
43561;DHT22;32305;46.410;17.394;2023-07-22T05:21:10;26.70;54.70
43561;DHT22;32305;46.410;17.394;2023-07-22T05:23:37;26.80;54.40
43561;DHT22;32305;46.410;17.394;2023-07-22T05:26:03;26.80;54.20
43561;DHT22;32305;46.410;17.394;2023-07-22T05:28:30;26.80;53.80
43561;DHT22;32305;46.410;17.394;2023-07-22T05:30:57;26.90;53.50
43561;DHT22;32305;46.410;17.394;2023-07-22T05:33:24;26.90;53.30
43561;DHT22;32305;46.410;17.394;2023-07-22T05:35:51;26.90;53.20
43561;DHT22;32305;46.410;17.394;2023-07-22T05:38:18;26.90;53.10
43561;DHT22;32305;46.410;17.394;2023-07-22T05:40:45;26.80;52.80
43561;DHT22;32305;46.410;17.394;2023-07-22T05:43:12;26.90;52.70
43561;DHT22;32305;46.410;17.394;2023-07-22T05:45:39;26.90;52.50
43561;DHT22;32305;46.410;17.394;2023-07-22T05:48:06;26.90;52.30
43561;DHT22;32305;46.410;17.394;2023-07-22T05:50:33;26.90;52.20
43561;DHT22;32305;46.410;17.394;2023-07-22T05:53:00;26.90;52.10
43561;DHT22;32305;46.410;17.394;2023-07-22T05:55:27;27.00;52.00
43561;DHT22;32305;46.410;17.394;2023-07-22T05:57:54;27.00;51.60
43561;DHT22;32305;46.410;17.394;2023-07-22T06:00:21;27.00;51.30
43561;DHT22;32305;46.410;17.394;2023-07-22T06:02:48;27.00;51.40
43561;DHT22;32305;46.410;17.394;2023-07-22T06:05:15;27.00;51.50
43561;DHT22;32305;46.410;17.394;2023-07-22T06:07:42;27.00;51.50
43561;DHT22;32305;46.410;17.394;2023-07-22T06:10:09;27.00;51.50
43561;DHT22;32305;46.410;17.394;2023-07-22T06:12:37;27.10;51.40
43561;DHT22;32305;46.410;17.394;2023-07-22T06:15:05;27.10;51.30
43561;DHT22;32305;46.410;17.394;2023-07-22T06:17:33;27.10;51.10
43561;DHT22;32305;46.410;17.394;2023-07-22T06:19:59;27.00;51.00
43561;DHT22;32305;46.410;17.394;2023-07-22T06:22:26;27.10;51.10
43561;DHT22;32305;46.410;17.394;2023-07-22T06:24:53;27.10;51.00
43561;DHT22;32305;46.410;17.394;2023-07-22T06:27:21;27.00;50.90
43561;DHT22;32305;46.410;17.394;2023-07-22T06:29:47;27.10;50.90
43561;DHT22;32305;46.410;17.394;2023-07-22T06:32:14;27.10;50.70
43561;DHT22;32305;46.410;17.394;2023-07-22T06:34:41;27.10;50.70
43561;DHT22;32305;46.410;17.394;2023-07-22T06:37:09;27.10;50.50
43561;DHT22;32305;46.410;17.394;2023-07-22T06:39:35;27.10;50.50
43561;DHT22;32305;46.410;17.394;2023-07-22T06:42:02;27.10;50.40
43561;DHT22;32305;46.410;17.394;2023-07-22T06:44:29;27.10;50.50
43561;DHT22;32305;46.410;17.394;2023-07-22T06:46:58;27.10;50.40
43561;DHT22;32305;46.410;17.394;2023-07-22T06:49:25;27.10;50.30
43561;DHT22;32305;46.410;17.394;2023-07-22T06:51:52;27.10;50.30
43561;DHT22;32305;46.410;17.394;2023-07-22T06:54:19;27.10;50.30
43561;DHT22;32305;46.410;17.394;2023-07-22T06:56:46;27.20;50.30
43561;DHT22;32305;46.410;17.394;2023-07-22T06:59:13;27.20;50.20
43561;DHT22;32305;46.410;17.394;2023-07-22T07:01:39;27.20;50.20
43561;DHT22;32305;46.410;17.394;2023-07-22T07:04:07;27.10;50.00
43561;DHT22;32305;46.410;17.394;2023-07-22T07:06:35;27.10;50.00
43561;DHT22;32305;46.410;17.394;2023-07-22T07:09:02;27.20;50.00
43561;DHT22;32305;46.410;17.394;2023-07-22T07:11:29;27.20;49.90
43561;DHT22;32305;46.410;17.394;2023-07-22T07:13:56;27.20;49.90
43561;DHT22;32305;46.410;17.394;2023-07-22T07:16:26;27.20;49.80
43561;DHT22;32305;46.410;17.394;2023-07-22T07:18:56;27.20;49.80
43561;DHT22;32305;46.410;17.394;2023-07-22T07:21:23;27.20;49.70
43561;DHT22;32305;46.410;17.394;2023-07-22T07:23:51;27.20;49.70
43561;DHT22;32305;46.410;17.394;2023-07-22T07:26:18;27.20;49.60
43561;DHT22;32305;46.410;17.394;2023-07-22T07:28:46;27.20;49.60
43561;DHT22;32305;46.410;17.394;2023-07-22T07:31:13;27.20;49.50
43561;DHT22;32305;46.410;17.394;2023-07-22T07:33:40;27.20;49.40
43561;DHT22;32305;46.410;17.394;2023-07-22T07:36:07;27.20;49.30
43561;DHT22;32305;46.410;17.394;2023-07-22T07:38:34;27.20;49.20
43561;DHT22;32305;46.410;17.394;2023-07-22T07:41:05;27.20;49.20
43561;DHT22;32305;46.410;17.394;2023-07-22T07:43:35;27.30;49.10
43561;DHT22;32305;46.410;17.394;2023-07-22T07:48:50;27.30;49.00
43561;DHT22;32305;46.410;17.394;2023-07-22T07:51:19;27.30;48.90
43561;DHT22;32305;46.410;17.394;2023-07-22T07:53:46;27.30;48.80
43561;DHT22;32305;46.410;17.394;2023-07-22T07:56:13;27.30;48.80
43561;DHT22;32305;46.410;17.394;2023-07-22T07:58:40;27.30;48.80
43561;DHT22;32305;46.410;17.394;2023-07-22T08:01:07;27.40;48.80
43561;DHT22;32305;46.410;17.394;2023-07-22T08:03:35;27.30;48.70
43561;DHT22;32305;46.410;17.394;2023-07-22T08:06:02;27.30;48.80
43561;DHT22;32305;46.410;17.394;2023-07-22T08:08:30;27.30;48.80
43561;DHT22;32305;46.410;17.394;2023-07-22T08:10:57;27.30;48.80
43561;DHT22;32305;46.410;17.394;2023-07-22T08:13:25;27.30;48.80
43561;DHT22;32305;46.410;17.394;2023-07-22T08:15:52;27.30;48.80
43561;DHT22;32305;46.410;17.394;2023-07-22T08:18:19;27.30;48.80
43561;DHT22;32305;46.410;17.394;2023-07-22T08:20:46;27.30;48.70
43561;DHT22;32305;46.410;17.394;2023-07-22T08:23:14;27.30;48.70
43561;DHT22;32305;46.410;17.394;2023-07-22T08:25:41;27.30;48.60
43561;DHT22;32305;46.410;17.394;2023-07-22T08:28:08;27.30;48.60
43561;DHT22;32305;46.410;17.394;2023-07-22T08:30:35;27.30;48.50
43561;DHT22;32305;46.410;17.394;2023-07-22T08:33:02;27.30;48.40
43561;DHT22;32305;46.410;17.394;2023-07-22T08:35:29;27.30;48.40
43561;DHT22;32305;46.410;17.394;2023-07-22T08:37:59;27.30;48.30
43561;DHT22;32305;46.410;17.394;2023-07-22T08:40:26;27.30;48.40
43561;DHT22;32305;46.410;17.394;2023-07-22T08:42:53;27.30;48.40
43561;DHT22;32305;46.410;17.394;2023-07-22T08:45:21;27.30;48.10
43561;DHT22;32305;46.410;17.394;2023-07-22T08:47:49;27.40;48.20
43561;DHT22;32305;46.410;17.394;2023-07-22T08:50:19;27.40;48.20
43561;DHT22;32305;46.410;17.394;2023-07-22T08:52:46;27.40;48.00
43561;DHT22;32305;46.410;17.394;2023-07-22T08:55:13;27.40;48.20
43561;DHT22;32305;46.410;17.394;2023-07-22T08:57:40;27.40;47.90
43561;DHT22;32305;46.410;17.394;2023-07-22T09:00:08;27.40;47.90
43561;DHT22;32305;46.410;17.394;2023-07-22T09:02:36;27.40;47.90
43561;DHT22;32305;46.410;17.394;2023-07-22T09:05:03;27.40;47.90
43561;DHT22;32305;46.410;17.394;2023-07-22T09:07:30;27.40;47.70
43561;DHT22;32305;46.410;17.394;2023-07-22T09:09:57;27.40;47.60
43561;DHT22;32305;46.410;17.394;2023-07-22T09:12:24;27.40;47.60
43561;DHT22;32305;46.410;17.394;2023-07-22T09:14:52;27.40;47.60
43561;DHT22;32305;46.410;17.394;2023-07-22T09:17:20;27.40;47.40
43561;DHT22;32305;46.410;17.394;2023-07-22T09:19:51;27.40;47.40
43561;DHT22;32305;46.410;17.394;2023-07-22T09:22:18;27.40;47.50
43561;DHT22;32305;46.410;17.394;2023-07-22T09:24:45;27.40;47.30
43561;DHT22;32305;46.410;17.394;2023-07-22T09:27:12;27.40;47.40
43561;DHT22;32305;46.410;17.394;2023-07-22T09:29:39;27.40;47.30
43561;DHT22;32305;46.410;17.394;2023-07-22T09:32:11;27.40;47.30
43561;DHT22;32305;46.410;17.394;2023-07-22T09:34:39;27.40;47.30
43561;DHT22;32305;46.410;17.394;2023-07-22T09:37:20;27.40;47.20
43561;DHT22;32305;46.410;17.394;2023-07-22T09:39:47;27.40;47.20
43561;DHT22;32305;46.410;17.394;2023-07-22T09:42:27;27.40;47.00
43561;DHT22;32305;46.410;17.394;2023-07-22T09:44:54;27.40;47.00
43561;DHT22;32305;46.410;17.394;2023-07-22T09:47:21;27.40;47.10
43561;DHT22;32305;46.410;17.394;2023-07-22T09:49:48;27.40;46.80
43561;DHT22;32305;46.410;17.394;2023-07-22T09:52:16;27.40;46.80
43561;DHT22;32305;46.410;17.394;2023-07-22T09:54:46;27.40;46.80
43561;DHT22;32305;46.410;17.394;2023-07-22T09:57:13;27.40;46.70
43561;DHT22;32305;46.410;17.394;2023-07-22T09:59:40;27.40;46.60
43561;DHT22;32305;46.410;17.394;2023-07-22T10:02:07;27.40;46.50
43561;DHT22;32305;46.410;17.394;2023-07-22T10:04:37;27.40;46.50
43561;DHT22;32305;46.410;17.394;2023-07-22T10:07:05;27.40;46.50
43561;DHT22;32305;46.410;17.394;2023-07-22T10:09:34;27.40;46.30
43561;DHT22;32305;46.410;17.394;2023-07-22T10:12:03;27.40;46.40
43561;DHT22;32305;46.410;17.394;2023-07-22T10:14:31;27.40;46.30
43561;DHT22;32305;46.410;17.394;2023-07-22T10:17:01;27.40;46.20
43561;DHT22;32305;46.410;17.394;2023-07-22T10:19:30;27.40;46.30
43561;DHT22;32305;46.410;17.394;2023-07-22T10:21:57;27.40;46.20
43561;DHT22;32305;46.410;17.394;2023-07-22T10:24:24;27.40;46.30
43561;DHT22;32305;46.410;17.394;2023-07-22T10:26:51;27.40;46.20
43561;DHT22;32305;46.410;17.394;2023-07-22T10:29:20;27.40;46.10
43561;DHT22;32305;46.410;17.394;2023-07-22T10:31:47;27.40;46.00
43561;DHT22;32305;46.410;17.394;2023-07-22T10:34:21;27.40;46.20
43561;DHT22;32305;46.410;17.394;2023-07-22T10:36:48;27.40;45.90
43561;DHT22;32305;46.410;17.394;2023-07-22T10:39:28;27.40;45.80
43561;DHT22;32305;46.410;17.394;2023-07-22T10:42:02;27.40;45.80
43561;DHT22;32305;46.410;17.394;2023-07-22T10:44:32;27.40;45.60
43561;DHT22;32305;46.410;17.394;2023-07-22T10:47:00;27.40;45.50
43561;DHT22;32305;46.410;17.394;2023-07-22T10:49:44;27.40;45.50
43561;DHT22;32305;46.410;17.394;2023-07-22T10:52:11;27.40;45.40
43561;DHT22;32305;46.410;17.394;2023-07-22T10:54:39;27.40;45.50
43561;DHT22;32305;46.410;17.394;2023-07-22T10:57:22;27.40;45.50
43561;DHT22;32305;46.410;17.394;2023-07-22T10:59:51;27.40;45.40
43561;DHT22;32305;46.410;17.394;2023-07-22T11:02:26;27.40;45.30
43561;DHT22;32305;46.410;17.394;2023-07-22T11:04:56;27.40;45.20
43561;DHT22;32305;46.410;17.394;2023-07-22T11:10:14;27.50;45.20
43561;DHT22;32305;46.410;17.394;2023-07-22T11:12:43;27.40;45.10
43561;DHT22;32305;46.410;17.394;2023-07-22T11:15:11;27.50;45.10
43561;DHT22;32305;46.410;17.394;2023-07-22T11:17:37;27.50;45.00
43561;DHT22;32305;46.410;17.394;2023-07-22T11:20:04;27.50;45.00
43561;DHT22;32305;46.410;17.394;2023-07-22T11:22:32;27.50;44.90
43561;DHT22;32305;46.410;17.394;2023-07-22T11:24:59;27.50;44.90
43561;DHT22;32305;46.410;17.394;2023-07-22T11:27:26;27.50;44.90
43561;DHT22;32305;46.410;17.394;2023-07-22T11:29:57;27.50;44.90
43561;DHT22;32305;46.410;17.394;2023-07-22T11:32:24;27.50;44.90
43561;DHT22;32305;46.410;17.394;2023-07-22T11:34:51;27.50;44.80
43561;DHT22;32305;46.410;17.394;2023-07-22T11:37:19;27.50;44.90
43561;DHT22;32305;46.410;17.394;2023-07-22T11:39:46;27.50;44.80
43561;DHT22;32305;46.410;17.394;2023-07-22T11:42:13;27.60;44.90
43561;DHT22;32305;46.410;17.394;2023-07-22T11:44:40;27.50;44.70
43561;DHT22;32305;46.410;17.394;2023-07-22T11:47:08;27.50;44.80
43561;DHT22;32305;46.410;17.394;2023-07-22T11:49:36;27.60;44.80
43561;DHT22;32305;46.410;17.394;2023-07-22T11:52:04;27.50;44.70
43561;DHT22;32305;46.410;17.394;2023-07-22T11:54:32;27.60;44.70
43561;DHT22;32305;46.410;17.394;2023-07-22T11:57:09;27.60;44.70
43561;DHT22;32305;46.410;17.394;2023-07-22T11:59:42;27.50;44.60
43561;DHT22;32305;46.410;17.394;2023-07-22T12:02:17;27.50;44.60
43561;DHT22;32305;46.410;17.394;2023-07-22T12:04:55;27.50;44.60
43561;DHT22;32305;46.410;17.394;2023-07-22T12:07:29;27.50;44.60
43561;DHT22;32305;46.410;17.394;2023-07-22T12:09:57;27.60;44.70
43561;DHT22;32305;46.410;17.394;2023-07-22T12:12:32;27.50;44.60
43561;DHT22;32305;46.410;17.394;2023-07-22T12:15:03;27.60;44.50
43561;DHT22;32305;46.410;17.394;2023-07-22T12:17:42;27.60;44.50
43561;DHT22;32305;46.410;17.394;2023-07-22T12:20:10;27.50;44.40
43561;DHT22;32305;46.410;17.394;2023-07-22T12:22:37;27.60;44.50
43561;DHT22;32305;46.410;17.394;2023-07-22T12:25:05;27.60;44.50
43561;DHT22;32305;46.410;17.394;2023-07-22T12:27:32;27.60;44.50
43561;DHT22;32305;46.410;17.394;2023-07-22T12:29:59;27.60;44.40
43561;DHT22;32305;46.410;17.394;2023-07-22T12:32:26;27.60;44.40
43561;DHT22;32305;46.410;17.394;2023-07-22T12:34:53;27.60;44.40
43561;DHT22;32305;46.410;17.394;2023-07-22T12:37:20;27.60;44.30
43561;DHT22;32305;46.410;17.394;2023-07-22T12:39:47;27.60;44.20
43561;DHT22;32305;46.410;17.394;2023-07-22T12:42:14;27.70;44.20
43561;DHT22;32305;46.410;17.394;2023-07-22T12:44:41;27.70;44.10
43561;DHT22;32305;46.410;17.394;2023-07-22T12:47:08;27.80;44.10
43561;DHT22;32305;46.410;17.394;2023-07-22T12:49:35;27.80;44.00
43561;DHT22;32305;46.410;17.394;2023-07-22T12:52:02;27.80;44.00
43561;DHT22;32305;46.410;17.394;2023-07-22T12:54:31;27.80;43.90
43561;DHT22;32305;46.410;17.394;2023-07-22T12:56:58;27.90;43.90
43561;DHT22;32305;46.410;17.394;2023-07-22T12:59:25;27.80;43.80
43561;DHT22;32305;46.410;17.394;2023-07-22T13:01:52;27.80;43.80
43561;DHT22;32305;46.410;17.394;2023-07-22T13:04:19;27.80;43.80
43561;DHT22;32305;46.410;17.394;2023-07-22T13:06:46;27.90;43.90
43561;DHT22;32305;46.410;17.394;2023-07-22T13:09:13;27.90;43.90
43561;DHT22;32305;46.410;17.394;2023-07-22T13:11:40;27.80;43.80
43561;DHT22;32305;46.410;17.394;2023-07-22T13:14:07;27.90;43.90
43561;DHT22;32305;46.410;17.394;2023-07-22T13:16:33;27.90;43.90
43561;DHT22;32305;46.410;17.394;2023-07-22T13:19:00;27.80;43.90
43561;DHT22;32305;46.410;17.394;2023-07-22T13:21:29;27.90;44.00
43561;DHT22;32305;46.410;17.394;2023-07-22T13:23:56;27.90;44.00
43561;DHT22;32305;46.410;17.394;2023-07-22T13:26:23;27.90;44.00
43561;DHT22;32305;46.410;17.394;2023-07-22T13:28:50;27.80;44.00
43561;DHT22;32305;46.410;17.394;2023-07-22T13:31:19;27.80;44.00
43561;DHT22;32305;46.410;17.394;2023-07-22T13:33:46;27.80;43.90
43561;DHT22;32305;46.410;17.394;2023-07-22T13:36:13;27.80;44.00
43561;DHT22;32305;46.410;17.394;2023-07-22T13:38:41;27.90;44.00
43561;DHT22;32305;46.410;17.394;2023-07-22T13:41:07;27.90;43.90
43561;DHT22;32305;46.410;17.394;2023-07-22T13:43:34;27.80;44.40
43561;DHT22;32305;46.410;17.394;2023-07-22T13:46:01;27.90;43.90
43561;DHT22;32305;46.410;17.394;2023-07-22T13:48:28;27.80;43.80
43561;DHT22;32305;46.410;17.394;2023-07-22T13:50:55;27.90;43.80
43561;DHT22;32305;46.410;17.394;2023-07-22T13:53:22;27.90;43.80
43561;DHT22;32305;46.410;17.394;2023-07-22T13:55:49;27.90;43.70
43561;DHT22;32305;46.410;17.394;2023-07-22T13:58:18;28.00;43.80
43561;DHT22;32305;46.410;17.394;2023-07-22T14:00:45;27.90;43.60
43561;DHT22;32305;46.410;17.394;2023-07-22T14:03:13;28.00;43.60
43561;DHT22;32305;46.410;17.394;2023-07-22T14:05:40;28.00;43.60
43561;DHT22;32305;46.410;17.394;2023-07-22T14:08:08;28.00;43.60
43561;DHT22;32305;46.410;17.394;2023-07-22T14:10:35;28.00;43.80
43561;DHT22;32305;46.410;17.394;2023-07-22T14:13:02;28.00;44.40
43561;DHT22;32305;46.410;17.394;2023-07-22T14:15:29;28.00;44.90
43561;DHT22;32305;46.410;17.394;2023-07-22T14:17:56;28.00;45.30
43561;DHT22;32305;46.410;17.394;2023-07-22T14:20:23;28.00;45.70
43561;DHT22;32305;46.410;17.394;2023-07-22T14:22:50;28.00;46.00
43561;DHT22;32305;46.410;17.394;2023-07-22T14:25:17;28.00;46.30
43561;DHT22;32305;46.410;17.394;2023-07-22T14:27:45;28.00;46.50
43561;DHT22;32305;46.410;17.394;2023-07-22T14:30:12;28.10;46.80
43561;DHT22;32305;46.410;17.394;2023-07-22T14:32:39;28.10;47.00
43561;DHT22;32305;46.410;17.394;2023-07-22T14:35:06;28.10;47.30
43561;DHT22;32305;46.410;17.394;2023-07-22T14:37:33;28.10;47.50
43561;DHT22;32305;46.410;17.394;2023-07-22T14:40:00;28.10;47.70
43561;DHT22;32305;46.410;17.394;2023-07-22T14:42:27;28.10;47.80
43561;DHT22;32305;46.410;17.394;2023-07-22T14:44:54;28.10;48.00
43561;DHT22;32305;46.410;17.394;2023-07-22T14:47:21;28.10;48.20
43561;DHT22;32305;46.410;17.394;2023-07-22T14:49:48;28.10;48.40
43561;DHT22;32305;46.410;17.394;2023-07-22T14:52:18;28.20;48.80
43561;DHT22;32305;46.410;17.394;2023-07-22T14:54:45;28.10;48.70
43561;DHT22;32305;46.410;17.394;2023-07-22T14:57:12;28.10;48.80
43561;DHT22;32305;46.410;17.394;2023-07-22T14:59:39;28.10;48.90
43561;DHT22;32305;46.410;17.394;2023-07-22T15:02:06;28.20;49.10
43561;DHT22;32305;46.410;17.394;2023-07-22T15:04:33;28.10;49.00
43561;DHT22;32305;46.410;17.394;2023-07-22T15:07:00;28.10;49.00
43561;DHT22;32305;46.410;17.394;2023-07-22T15:09:29;28.10;49.00
43561;DHT22;32305;46.410;17.394;2023-07-22T15:11:57;28.10;49.10
43561;DHT22;32305;46.410;17.394;2023-07-22T15:14:23;28.10;49.00
43561;DHT22;32305;46.410;17.394;2023-07-22T15:16:50;28.10;49.10
43561;DHT22;32305;46.410;17.394;2023-07-22T15:19:17;28.10;49.00
43561;DHT22;32305;46.410;17.394;2023-07-22T15:21:44;28.10;49.00
43561;DHT22;32305;46.410;17.394;2023-07-22T15:24:11;28.10;49.00